Panorama — SVAG5 — position and weather

sailwx.info

Track history (hours):
 
Tides and Currents Weather Stations Pressure Air Temp Water Temp Dewpoint Dewpoint Depression Visibility Wind Speed Wind Dir Waves Ship Positions

Panorama

Last reported at 2018-Aug-17 08:09 UTC. Time now 2018-Aug-17 11:41 UTC.
Position N 38°01' E 024°03'.

Length 100 m; draft 3.6 m.

Type: Ship. MMSI: 241133000.

Date/timePositionNaut miles runAvg speedWind from/ knotsBaromVisibWave heightAir tempDewpointWater temp
2018-Aug-17 08:09N 38°01' E 024°03'315.0
2018-Aug-17 07:58N 38°02' E 024°06'3 0.9
2018-Aug-17 04:44N 38°01' E 024°03'313.9
2018-Aug-17 04:30N 38°02' E 024°07'3 0.3
2018-Aug-16 15:57N 38°01' E 024°03'0 0.1
2018-Aug-16 12:26N 38°01' E 024°03'0 0.1
2018-Aug-16 08:14N 38°01' E 024°02'0 0.1
2018-Aug-16 04:43N 38°01' E 024°03'314.2
2018-Aug-16 04:29N 38°02' E 024°07'3 0.3
2018-Aug-15 17:43N 38°01' E 024°02'314.3
2018-Aug-15 17:30N 38°02' E 024°06'3 1.0
2018-Aug-15 14:27N 38°01' E 024°03'0 0.0
2018-Aug-14 15:58N 38°01' E 024°03'1 0.2
2018-Aug-14 12:29N 38°01' E 024°02'1 0.2
2018-Aug-14 08:12N 38°01' E 024°03'314.3
2018-Aug-14 07:59N 38°02' E 024°07'3 1.0
2018-Aug-14 04:43N 38°01' E 024°02'414.2
2018-Aug-14 04:28N 38°02' E 024°07'4 0.3
2018-Aug-13 15:59N 38°01' E 024°02'0 0.1
2018-Aug-13 12:30N 38°01' E 024°02'0 0.1
2018-Aug-13 08:16N 38°01' E 024°02'2 0.6
2018-Aug-13 04:36N 38°01' E 024°05'2 0.2
2018-Aug-12 18:02N 38°01' E 024°03'313.1
2018-Aug-12 17:47N 38°02' E 024°07'4 1.1
2018-Aug-12 14:30N 38°01' E 024°02'0 0.1
2018-Aug-12 07:46N 38°01' E 024°03'414.2
2018-Aug-12 07:30N 38°02' E 024°08'  
Track history (hours):
 
Tides and Currents Weather Stations Pressure Air Temp Water Temp Dewpoint Dewpoint Depression Visibility Wind Speed Wind Dir Waves Ship Positions

Panorama

Last reported at 2018-Aug-17 08:09 UTC. Time now 2018-Aug-17 11:41 UTC.
Position N 38°01' E 024°03'.

Length 100 m; draft 3.6 m.

Type: Ship. MMSI: 241133000.

Date/timePositionNaut miles runAvg speedWind from/ knotsBaromVisibWave heightAir tempDewpointWater temp
2018-Aug-17 08:09N 38°01' E 024°03'315.0
2018-Aug-17 07:58N 38°02' E 024°06'3 0.9
2018-Aug-17 04:44N 38°01' E 024°03'313.9
2018-Aug-17 04:30N 38°02' E 024°07'3 0.3
2018-Aug-16 15:57N 38°01' E 024°03'0 0.1
2018-Aug-16 12:26N 38°01' E 024°03'0 0.1
2018-Aug-16 08:14N 38°01' E 024°02'0 0.1
2018-Aug-16 04:43N 38°01' E 024°03'314.2
2018-Aug-16 04:29N 38°02' E 024°07'3 0.3
2018-Aug-15 17:43N 38°01' E 024°02'314.3
2018-Aug-15 17:30N 38°02' E 024°06'3 1.0
2018-Aug-15 14:27N 38°01' E 024°03'0 0.0
2018-Aug-14 15:58N 38°01' E 024°03'1 0.2
2018-Aug-14 12:29N 38°01' E 024°02'1 0.2
2018-Aug-14 08:12N 38°01' E 024°03'314.3
2018-Aug-14 07:59N 38°02' E 024°07'3 1.0
2018-Aug-14 04:43N 38°01' E 024°02'414.2
2018-Aug-14 04:28N 38°02' E 024°07'4 0.3
2018-Aug-13 15:59N 38°01' E 024°02'0 0.1
2018-Aug-13 12:30N 38°01' E 024°02'0 0.1
2018-Aug-13 08:16N 38°01' E 024°02'2 0.6
2018-Aug-13 04:36N 38°01' E 024°05'2 0.2
2018-Aug-12 18:02N 38°01' E 024°03'313.1
2018-Aug-12 17:47N 38°02' E 024°07'4 1.1
2018-Aug-12 14:30N 38°01' E 024°02'0 0.1
2018-Aug-12 07:46N 38°01' E 024°03'414.2
2018-Aug-12 07:30N 38°02' E 024°08'  

Dump ship's entire track history